sensor_id;sensor_type;location;lat;lon;timestamp;temperature;humidity
22858;DHT22;13919;45.644;13.764;2022-08-19T03:00:52;23.70;99.90
22858;DHT22;13919;45.644;13.764;2022-08-19T03:03:19;20.90;99.90
22858;DHT22;13919;45.644;13.764;2022-08-19T03:05:45;20.70;99.90
22858;DHT22;13919;45.644;13.764;2022-08-19T03:08:11;20.70;99.90
22858;DHT22;13919;45.644;13.764;2022-08-19T03:10:46;20.60;99.90
22858;DHT22;13919;45.644;13.764;2022-08-19T03:13:17;20.60;99.90
22858;DHT22;13919;45.644;13.764;2022-08-19T03:15:45;20.50;99.90
22858;DHT22;13919;45.644;13.764;2022-08-19T03:18:12;20.60;99.90
22858;DHT22;13919;45.644;13.764;2022-08-19T03:20:43;20.60;99.90
22858;DHT22;13919;45.644;13.764;2022-08-19T03:23:09;20.60;99.90
22858;DHT22;13919;45.644;13.764;2022-08-19T03:25:40;20.60;99.90
22858;DHT22;13919;45.644;13.764;2022-08-19T03:28:07;20.70;99.90
22858;DHT22;13919;45.644;13.764;2022-08-19T03:30:33;20.70;99.90
22858;DHT22;13919;45.644;13.764;2022-08-19T03:32:59;20.70;99.90
22858;DHT22;13919;45.644;13.764;2022-08-19T03:35:24;20.80;99.90
22858;DHT22;13919;45.644;13.764;2022-08-19T03:37:50;20.80;99.90
22858;DHT22;13919;45.644;13.764;2022-08-19T03:40:16;20.80;99.90
22858;DHT22;13919;45.644;13.764;2022-08-19T03:42:44;20.90;99.90
22858;DHT22;13919;45.644;13.764;2022-08-19T03:45:11;20.80;99.90
22858;DHT22;13919;45.644;13.764;2022-08-19T03:47:37;20.90;99.90
22858;DHT22;13919;45.644;13.764;2022-08-19T03:50:03;20.90;99.90
22858;DHT22;13919;45.644;13.764;2022-08-19T03:52:29;21.00;99.90
22858;DHT22;13919;45.644;13.764;2022-08-19T03:54:55;21.10;99.90
22858;DHT22;13919;45.644;13.764;2022-08-19T03:57:21;21.30;99.90
22858;DHT22;13919;45.644;13.764;2022-08-19T03:59:47;21.50;99.90
22858;DHT22;13919;45.644;13.764;2022-08-19T04:02:13;21.60;99.90
22858;DHT22;13919;45.644;13.764;2022-08-19T04:04:40;21.70;99.90
22858;DHT22;13919;45.644;13.764;2022-08-19T04:07:08;21.70;99.90
22858;DHT22;13919;45.644;13.764;2022-08-19T04:09:35;21.60;99.90
22858;DHT22;13919;45.644;13.764;2022-08-19T04:12:02;21.60;99.90
22858;DHT22;13919;45.644;13.764;2022-08-19T04:14:31;21.60;99.90
22858;DHT22;13919;45.644;13.764;2022-08-19T04:16:59;21.50;99.90
22858;DHT22;13919;45.644;13.764;2022-08-19T04:19:26;21.50;99.90
22858;DHT22;13919;45.644;13.764;2022-08-19T04:21:54;21.40;99.90
22858;DHT22;13919;45.644;13.764;2022-08-19T04:24:21;21.30;99.90
22858;DHT22;13919;45.644;13.764;2022-08-19T04:26:47;21.20;99.90
22858;DHT22;13919;45.644;13.764;2022-08-19T04:29:18;21.20;99.90
22858;DHT22;13919;45.644;13.764;2022-08-19T04:31:45;21.20;99.90
22858;DHT22;13919;45.644;13.764;2022-08-19T04:34:12;21.10;99.90
22858;DHT22;13919;45.644;13.764;2022-08-19T04:36:40;21.10;99.90
22858;DHT22;13919;45.644;13.764;2022-08-19T04:39:09;21.00;99.90
22858;DHT22;13919;45.644;13.764;2022-08-19T04:41:35;21.00;99.90
22858;DHT22;13919;45.644;13.764;2022-08-19T04:44:20;20.80;99.90
22858;DHT22;13919;45.644;13.764;2022-08-19T04:54:08;20.60;99.90
22858;DHT22;13919;45.644;13.764;2022-08-19T04:56:34;19.90;99.90
22858;DHT22;13919;45.644;13.764;2022-08-19T04:59:00;19.80;99.90
22858;DHT22;13919;45.644;13.764;2022-08-19T05:06:23;19.90;99.90
22858;DHT22;13919;45.644;13.764;2022-08-19T05:08:49;20.00;99.90
22858;DHT22;13919;45.644;13.764;2022-08-19T05:11:16;20.10;99.90
22858;DHT22;13919;45.644;13.764;2022-08-19T05:13:44;20.20;99.90
22858;DHT22;13919;45.644;13.764;2022-08-19T05:16:11;20.20;99.90
22858;DHT22;13919;45.644;13.764;2022-08-19T05:18:37;20.30;99.90
22858;DHT22;13919;45.644;13.764;2022-08-19T05:21:22;20.30;99.90
22858;DHT22;13919;45.644;13.764;2022-08-19T05:24:07;20.40;99.90
22858;DHT22;13919;45.644;13.764;2022-08-19T05:26:36;20.40;99.90
22858;DHT22;13919;45.644;13.764;2022-08-19T05:29:03;20.40;99.90
22858;DHT22;13919;45.644;13.764;2022-08-19T05:31:29;20.50;99.90
22858;DHT22;13919;45.644;13.764;2022-08-19T05:33:55;20.40;99.90
22858;DHT22;13919;45.644;13.764;2022-08-19T05:36:24;20.40;99.90
22858;DHT22;13919;45.644;13.764;2022-08-19T05:38:50;20.50;99.90
22858;DHT22;13919;45.644;13.764;2022-08-19T05:41:18;20.50;99.90
22858;DHT22;13919;45.644;13.764;2022-08-19T05:43:44;20.60;99.90
22858;DHT22;13919;45.644;13.764;2022-08-19T05:46:17;20.70;99.90
22858;DHT22;13919;45.644;13.764;2022-08-19T05:48:44;20.80;99.90
22858;DHT22;13919;45.644;13.764;2022-08-19T05:51:09;20.90;99.90
22858;DHT22;13919;45.644;13.764;2022-08-19T05:53:36;21.00;99.90
22858;DHT22;13919;45.644;13.764;2022-08-19T05:56:14;21.10;99.90
22858;DHT22;13919;45.644;13.764;2022-08-19T05:58:42;21.40;99.90
22858;DHT22;13919;45.644;13.764;2022-08-19T06:01:13;21.40;99.90
22858;DHT22;13919;45.644;13.764;2022-08-19T06:03:40;21.60;99.90
22858;DHT22;13919;45.644;13.764;2022-08-19T06:06:11;21.60;99.90
22858;DHT22;13919;45.644;13.764;2022-08-19T06:08:37;21.80;99.90
22858;DHT22;13919;45.644;13.764;2022-08-19T06:13:46;22.00;99.90
22858;DHT22;13919;45.644;13.764;2022-08-19T06:16:17;22.10;99.90
22858;DHT22;13919;45.644;13.764;2022-08-19T06:18:53;22.10;99.90
22858;DHT22;13919;45.644;13.764;2022-08-19T06:21:23;22.20;99.90
22858;DHT22;13919;45.644;13.764;2022-08-19T06:23:50;22.30;99.90
22858;DHT22;13919;45.644;13.764;2022-08-19T06:26:18;22.30;99.90
22858;DHT22;13919;45.644;13.764;2022-08-19T06:28:45;22.40;99.90
22858;DHT22;13919;45.644;13.764;2022-08-19T06:31:19;22.40;99.90
22858;DHT22;13919;45.644;13.764;2022-08-19T06:33:47;22.50;99.90
22858;DHT22;13919;45.644;13.764;2022-08-19T06:39:00;22.70;99.90
22858;DHT22;13919;45.644;13.764;2022-08-19T06:41:28;22.80;99.90
22858;DHT22;13919;45.644;13.764;2022-08-19T06:43:54;22.80;99.90
22858;DHT22;13919;45.644;13.764;2022-08-19T06:46:21;22.90;99.90
22858;DHT22;13919;45.644;13.764;2022-08-19T06:48:47;23.00;99.90
22858;DHT22;13919;45.644;13.764;2022-08-19T06:51:17;23.10;99.90
22858;DHT22;13919;45.644;13.764;2022-08-19T06:53:49;23.30;99.90
22858;DHT22;13919;45.644;13.764;2022-08-19T06:56:17;23.40;99.90
22858;DHT22;13919;45.644;13.764;2022-08-19T06:58:43;23.50;99.90
22858;DHT22;13919;45.644;13.764;2022-08-19T07:01:09;23.70;99.90
22858;DHT22;13919;45.644;13.764;2022-08-19T07:03:37;23.80;99.90
22858;DHT22;13919;45.644;13.764;2022-08-19T07:06:07;24.00;99.90
22858;DHT22;13919;45.644;13.764;2022-08-19T07:08:35;24.10;99.90
22858;DHT22;13919;45.644;13.764;2022-08-19T07:11:06;24.30;99.90
22858;DHT22;13919;45.644;13.764;2022-08-19T07:13:32;24.40;99.90
22858;DHT22;13919;45.644;13.764;2022-08-19T07:16:04;24.70;99.90
22858;DHT22;13919;45.644;13.764;2022-08-19T07:18:30;24.90;99.90
22858;DHT22;13919;45.644;13.764;2022-08-19T07:23:30;24.90;99.90
22858;DHT22;13919;45.644;13.764;2022-08-19T07:25:55;24.90;99.90
22858;DHT22;13919;45.644;13.764;2022-08-19T07:28:22;24.90;99.90
22858;DHT22;13919;45.644;13.764;2022-08-19T07:30:48;25.00;99.90
22858;DHT22;13919;45.644;13.764;2022-08-19T07:33:15;25.00;99.90
22858;DHT22;13919;45.644;13.764;2022-08-19T07:35:41;25.00;99.90
22858;DHT22;13919;45.644;13.764;2022-08-19T07:38:07;25.00;99.90
22858;DHT22;13919;45.644;13.764;2022-08-19T07:40:33;25.10;99.90
22858;DHT22;13919;45.644;13.764;2022-08-19T07:42:59;25.10;99.90
22858;DHT22;13919;45.644;13.764;2022-08-19T07:45:24;25.10;99.90
22858;DHT22;13919;45.644;13.764;2022-08-19T07:47:50;25.20;99.90
22858;DHT22;13919;45.644;13.764;2022-08-19T07:50:17;25.10;99.90
22858;DHT22;13919;45.644;13.764;2022-08-19T07:52:44;25.20;99.90
22858;DHT22;13919;45.644;13.764;2022-08-19T07:55:10;25.30;99.90
22858;DHT22;13919;45.644;13.764;2022-08-19T07:57:36;25.50;99.90
22858;DHT22;13919;45.644;13.764;2022-08-19T08:00:04;25.50;99.90
22858;DHT22;13919;45.644;13.764;2022-08-19T08:02:31;25.60;99.90
22858;DHT22;13919;45.644;13.764;2022-08-19T08:04:57;25.70;99.90
22858;DHT22;13919;45.644;13.764;2022-08-19T08:07:41;25.80;99.90
22858;DHT22;13919;45.644;13.764;2022-08-19T08:10:25;25.80;99.90
22858;DHT22;13919;45.644;13.764;2022-08-19T08:12:51;25.80;99.90
22858;DHT22;13919;45.644;13.764;2022-08-19T08:15:17;25.90;99.90
22858;DHT22;13919;45.644;13.764;2022-08-19T08:17:44;25.90;99.90
22858;DHT22;13919;45.644;13.764;2022-08-19T08:20:10;25.90;99.90
22858;DHT22;13919;45.644;13.764;2022-08-19T08:22:36;25.80;99.90
22858;DHT22;13919;45.644;13.764;2022-08-19T08:25:22;25.80;99.90
22858;DHT22;13919;45.644;13.764;2022-08-19T08:27:49;25.90;99.90
22858;DHT22;13919;45.644;13.764;2022-08-19T08:30:23;26.00;99.90
22858;DHT22;13919;45.644;13.764;2022-08-19T08:32:50;26.30;99.90
22858;DHT22;13919;45.644;13.764;2022-08-19T08:35:19;26.70;99.90
22858;DHT22;13919;45.644;13.764;2022-08-19T08:37:45;27.20;99.90
22858;DHT22;13919;45.644;13.764;2022-08-19T08:40:26;27.50;99.90
22858;DHT22;13919;45.644;13.764;2022-08-19T08:43:17;27.80;99.90
22858;DHT22;13919;45.644;13.764;2022-08-19T08:46:00;27.80;99.90
22858;DHT22;13919;45.644;13.764;2022-08-19T08:48:48;27.70;99.90
22858;DHT22;13919;45.644;13.764;2022-08-19T08:51:18;27.60;99.90
22858;DHT22;13919;45.644;13.764;2022-08-19T08:53:49;27.50;99.90
22858;DHT22;13919;45.644;13.764;2022-08-19T08:56:16;27.50;99.90
22858;DHT22;13919;45.644;13.764;2022-08-19T08:59:01;27.50;99.90
22858;DHT22;13919;45.644;13.764;2022-08-19T09:01:29;27.50;99.90
22858;DHT22;13919;45.644;13.764;2022-08-19T09:03:55;27.60;99.90
22858;DHT22;13919;45.644;13.764;2022-08-19T09:09:00;27.80;99.90
22858;DHT22;13919;45.644;13.764;2022-08-19T09:16:40;27.70;99.90
22858;DHT22;13919;45.644;13.764;2022-08-19T09:19:07;27.70;99.90
22858;DHT22;13919;45.644;13.764;2022-08-19T09:21:33;27.80;99.90
22858;DHT22;13919;45.644;13.764;2022-08-19T09:24:01;27.90;99.90
22858;DHT22;13919;45.644;13.764;2022-08-19T09:26:27;28.10;99.90
22858;DHT22;13919;45.644;13.764;2022-08-19T09:28:53;28.30;99.90
22858;DHT22;13919;45.644;13.764;2022-08-19T09:31:22;28.40;99.90
22858;DHT22;13919;45.644;13.764;2022-08-19T09:33:49;28.60;99.90
22858;DHT22;13919;45.644;13.764;2022-08-19T09:36:17;28.80;99.90
22858;DHT22;13919;45.644;13.764;2022-08-19T09:38:44;28.90;99.90
22858;DHT22;13919;45.644;13.764;2022-08-19T09:41:17;28.90;99.90
22858;DHT22;13919;45.644;13.764;2022-08-19T09:43:45;29.00;99.90
22858;DHT22;13919;45.644;13.764;2022-08-19T09:46:12;28.90;99.90
22858;DHT22;13919;45.644;13.764;2022-08-19T09:48:39;28.80;99.90
22858;DHT22;13919;45.644;13.764;2022-08-19T09:51:10;28.70;99.90
22858;DHT22;13919;45.644;13.764;2022-08-19T09:53:38;28.70;99.90
22858;DHT22;13919;45.644;13.764;2022-08-19T09:56:05;29.00;99.90
22858;DHT22;13919;45.644;13.764;2022-08-19T09:58:32;29.30;99.90
